createdAt,value
2022-10-28T00:00:24.756Z,1.75
2022-10-28T00:01:24.835Z,1.65
2022-10-28T00:02:24.736Z,1.70
2022-10-28T00:03:24.687Z,1.65
2022-10-28T00:04:24.708Z,1.75
2022-10-28T00:05:24.648Z,1.65
2022-10-28T00:06:24.657Z,1.65
2022-10-28T00:07:24.748Z,1.78
2022-10-28T00:08:24.704Z,1.73
2022-10-28T00:09:24.625Z,1.68
2022-10-28T00:10:24.612Z,1.75
2022-10-28T00:11:24.620Z,1.65
2022-10-28T00:12:24.584Z,1.78
2022-10-28T00:13:24.724Z,1.78
2022-10-28T00:14:24.567Z,1.78
2022-10-28T00:15:24.562Z,1.75
2022-10-28T00:16:24.537Z,1.75
2022-10-28T00:18:24.503Z,1.68
2022-10-28T00:19:24.491Z,1.75
2022-10-28T00:20:24.502Z,1.65
2022-10-28T00:21:24.461Z,1.75
2022-10-28T00:22:24.492Z,1.68
2022-10-28T00:23:24.442Z,1.68
2022-10-28T00:24:24.428Z,1.78
2022-10-28T00:25:24.419Z,1.78
2022-10-28T00:26:24.401Z,1.75
2022-10-28T00:27:24.389Z,1.78
2022-10-28T00:28:24.392Z,1.70
2022-10-28T00:29:24.341Z,1.63
2022-10-28T00:30:24.448Z,1.73
2022-10-28T00:31:24.349Z,1.75
2022-10-28T00:32:24.310Z,1.68
2022-10-28T00:33:24.299Z,1.73
2022-10-28T00:34:24.408Z,1.63
2022-10-28T00:35:24.279Z,1.78
2022-10-28T00:36:24.279Z,1.70
2022-10-28T00:37:24.268Z,1.68
2022-10-28T00:38:24.239Z,1.75
2022-10-28T00:39:24.246Z,1.78
2022-10-28T00:40:24.225Z,1.75
2022-10-28T00:41:24.215Z,1.70
2022-10-28T00:42:24.219Z,1.70
2022-10-28T00:43:24.177Z,1.70
2022-10-28T00:44:24.195Z,1.75
2022-10-28T00:45:24.178Z,1.65
2022-10-28T00:46:24.168Z,1.75
2022-10-28T00:47:24.266Z,1.68
2022-10-28T00:48:24.107Z,1.80
2022-10-28T00:49:24.177Z,1.75
2022-10-28T00:50:24.094Z,1.73
2022-10-28T00:51:24.101Z,1.65
2022-10-28T00:52:24.075Z,1.65
2022-10-28T00:53:24.068Z,1.75
2022-10-28T00:54:24.053Z,1.68
2022-10-28T00:55:24.023Z,1.78
2022-10-28T00:56:24.002Z,1.75
2022-10-28T00:57:24.002Z,1.68
2022-10-28T00:58:23.981Z,1.75
2022-10-28T00:59:23.973Z,1.65
2022-10-28T01:00:23.961Z,1.75
2022-10-28T01:01:24.062Z,1.68
2022-10-28T01:02:23.988Z,1.63
2022-10-28T01:03:23.989Z,1.78
2022-10-28T01:04:23.899Z,1.80
2022-10-28T01:05:23.898Z,1.63
2022-10-28T01:06:23.900Z,1.65
2022-10-28T01:07:23.865Z,1.75
2022-10-28T01:08:23.839Z,1.70
2022-10-28T01:09:26.831Z,1.63
2022-10-28T01:10:23.849Z,1.75
2022-10-28T01:11:23.841Z,1.65
2022-10-28T01:12:23.808Z,1.68
2022-10-28T01:13:23.802Z,1.65
2022-10-28T01:14:23.791Z,1.73
2022-10-28T01:15:23.781Z,1.65
2022-10-28T01:16:23.749Z,1.73
2022-10-28T01:17:23.721Z,1.65
2022-10-28T01:18:23.756Z,1.63
2022-10-28T01:19:23.705Z,1.73
2022-10-28T01:20:23.736Z,1.78
2022-10-28T01:21:23.665Z,1.75
2022-10-28T01:22:23.698Z,1.73
2022-10-28T01:23:23.697Z,1.63
2022-10-28T01:24:23.641Z,1.68
2022-10-28T01:25:23.643Z,1.63
2022-10-28T01:26:23.684Z,1.61
2022-10-28T01:27:23.682Z,1.63
2022-10-28T01:28:23.604Z,1.70
2022-10-28T01:29:23.613Z,1.75
2022-10-28T01:30:23.574Z,1.73
2022-10-28T01:31:23.550Z,1.65
2022-10-28T01:32:23.552Z,1.70
2022-10-28T01:33:23.524Z,1.63
2022-10-28T01:34:23.561Z,1.73
2022-10-28T01:35:23.565Z,1.73
2022-10-28T01:36:23.520Z,1.78
2022-10-28T01:37:23.493Z,1.73
2022-10-28T01:38:23.461Z,1.70
2022-10-28T01:39:23.441Z,1.70
2022-10-28T01:40:23.440Z,1.63
2022-10-28T01:41:23.411Z,1.70
2022-10-28T01:42:23.444Z,1.73
2022-10-28T01:43:23.390Z,1.73
2022-10-28T01:44:23.379Z,1.63
2022-10-28T01:45:23.429Z,1.63
2022-10-28T01:46:23.391Z,1.65
2022-10-28T01:47:23.355Z,1.65
2022-10-28T01:48:23.339Z,1.65
2022-10-28T01:49:23.338Z,1.75
2022-10-28T01:50:23.336Z,1.61
2022-10-28T01:51:23.417Z,1.75
2022-10-28T01:52:23.281Z,1.68
2022-10-28T01:53:23.267Z,1.63
2022-10-28T01:54:23.299Z,1.73
2022-10-28T01:55:23.247Z,1.68
2022-10-28T01:56:23.246Z,1.73
2022-10-28T01:57:23.208Z,1.61
2022-10-28T01:58:23.195Z,1.65
2022-10-28T01:59:23.285Z,1.63
2022-10-28T02:00:23.194Z,1.65
2022-10-28T02:01:23.290Z,1.73
2022-10-28T02:02:23.186Z,1.63
2022-10-28T02:03:23.164Z,1.75
2022-10-28T02:04:23.162Z,1.63
2022-10-28T02:05:23.133Z,1.73
2022-10-28T02:06:23.164Z,1.73
2022-10-28T02:07:23.113Z,1.73
2022-10-28T02:08:23.093Z,1.68
2022-10-28T02:09:23.062Z,1.73
2022-10-28T02:10:23.113Z,1.63
2022-10-28T02:11:23.054Z,1.73
2022-10-28T02:12:23.011Z,1.65
2022-10-28T02:13:23.039Z,1.73
2022-10-28T02:14:23.023Z,1.65
2022-10-28T02:15:22.981Z,1.70
2022-10-28T02:16:23.011Z,1.61
2022-10-28T02:17:22.968Z,1.73
2022-10-28T02:18:22.961Z,1.61
2022-10-28T02:19:22.938Z,1.61
2022-10-28T02:20:22.918Z,1.70
2022-10-28T02:21:22.910Z,1.70
2022-10-28T02:22:22.894Z,1.63
2022-10-28T02:23:22.914Z,1.68
2022-10-28T02:24:22.878Z,1.70
2022-10-28T02:25:22.849Z,1.70
2022-10-28T02:26:22.858Z,1.73
2022-10-28T02:27:22.822Z,1.73
2022-10-28T02:28:22.838Z,1.61
2022-10-28T02:29:22.812Z,1.73
2022-10-28T02:30:22.788Z,1.63
2022-10-28T02:31:22.772Z,1.70
2022-10-28T02:32:22.766Z,1.61
2022-10-28T02:33:22.771Z,1.70
2022-10-28T02:34:22.773Z,1.70
2022-10-28T02:35:22.765Z,1.70
2022-10-28T02:36:22.766Z,1.73
2022-10-28T02:37:22.706Z,1.68
2022-10-28T02:38:22.732Z,1.65
2022-10-28T02:39:22.675Z,1.63
2022-10-28T02:40:22.707Z,1.63
2022-10-28T02:41:22.655Z,1.63
2022-10-28T02:42:22.654Z,1.70
2022-10-28T02:43:22.655Z,1.61
2022-10-28T02:44:22.623Z,1.63
2022-10-28T02:45:22.613Z,1.73
2022-10-28T02:46:22.619Z,1.61
2022-10-28T02:47:22.632Z,1.75
2022-10-28T02:48:22.574Z,1.65
2022-10-28T02:49:22.551Z,1.58
2022-10-28T02:50:22.544Z,1.61
2022-10-28T02:51:22.530Z,1.75
2022-10-28T02:52:22.500Z,1.70
2022-10-28T02:53:22.569Z,1.61
2022-10-28T02:54:22.513Z,1.70
2022-10-28T02:55:22.480Z,1.73
2022-10-28T02:56:22.480Z,1.73
2022-10-28T02:57:22.460Z,1.61
2022-10-28T02:58:22.431Z,1.61
2022-10-28T02:59:22.429Z,1.63
2022-10-28T03:00:22.425Z,1.63
2022-10-28T03:01:22.458Z,1.58
2022-10-28T03:02:22.497Z,1.70
2022-10-28T03:03:22.366Z,1.63
2022-10-28T03:04:22.367Z,1.61
2022-10-28T03:05:22.340Z,1.61
2022-10-28T03:06:22.387Z,1.70
2022-10-28T03:07:22.352Z,1.70
2022-10-28T03:08:22.305Z,1.58
2022-10-28T03:09:22.316Z,1.70
2022-10-28T03:10:22.286Z,1.75
2022-10-28T03:11:22.247Z,1.73
2022-10-28T03:12:22.378Z,1.70
2022-10-28T03:13:22.257Z,1.63
2022-10-28T03:14:22.227Z,1.65
2022-10-28T03:15:22.231Z,1.58
2022-10-28T03:16:22.214Z,1.70
2022-10-28T03:17:22.176Z,1.68
2022-10-28T03:18:22.185Z,1.65
2022-10-28T03:19:22.194Z,1.63
2022-10-28T03:20:22.188Z,1.70
2022-10-28T03:21:22.117Z,1.73
2022-10-28T03:22:22.139Z,1.65
2022-10-28T03:23:22.133Z,1.63
2022-10-28T03:24:22.112Z,1.61
2022-10-28T03:25:22.074Z,1.61
2022-10-28T03:26:22.084Z,1.70
2022-10-28T03:27:22.099Z,1.61
2022-10-28T03:28:22.039Z,1.65
2022-10-28T03:29:22.132Z,1.61
2022-10-28T03:30:22.032Z,1.61
2022-10-28T03:31:22.002Z,1.61
2022-10-28T03:33:21.970Z,1.63
2022-10-28T03:34:21.958Z,1.61
2022-10-28T03:35:21.979Z,1.73
2022-10-28T03:36:21.951Z,1.70
2022-10-28T03:37:21.988Z,1.61
2022-10-28T03:38:21.918Z,1.70
2022-10-28T03:39:21.902Z,1.65
2022-10-28T03:40:21.896Z,1.68
2022-10-28T03:41:21.878Z,1.61
2022-10-28T03:42:21.857Z,1.73
2022-10-28T03:43:21.868Z,1.70
2022-10-28T03:44:21.824Z,1.70
2022-10-28T03:45:21.851Z,1.73
2022-10-28T03:46:21.817Z,1.63
2022-10-28T03:47:21.898Z,1.61
2022-10-28T03:48:21.776Z,1.68
2022-10-28T03:49:21.774Z,1.70
2022-10-28T03:50:21.764Z,1.61
2022-10-28T03:51:21.763Z,1.73
2022-10-28T03:52:21.747Z,1.61
2022-10-28T03:53:21.754Z,1.73
2022-10-28T03:54:21.724Z,1.70
2022-10-28T03:55:21.696Z,1.61
2022-10-28T03:56:21.683Z,1.63
2022-10-28T03:57:21.663Z,1.70
2022-10-28T03:58:21.673Z,1.63
2022-10-28T03:59:21.642Z,1.61
2022-10-28T04:00:21.664Z,1.70
2022-10-28T04:01:21.722Z,1.65
2022-10-28T04:02:21.704Z,1.70
2022-10-28T04:03:21.581Z,1.65
2022-10-28T04:04:21.601Z,1.73
2022-10-28T04:05:21.561Z,1.68
2022-10-28T04:06:21.542Z,1.63
2022-10-28T04:07:21.564Z,1.63
2022-10-28T04:08:21.541Z,1.73
2022-10-28T04:09:21.581Z,1.70
2022-10-28T04:10:21.541Z,1.63
2022-10-28T04:11:21.491Z,1.68
2022-10-28T04:12:21.503Z,1.73
2022-10-28T04:13:21.507Z,1.73
2022-10-28T04:14:21.460Z,1.61
2022-10-28T04:15:21.460Z,1.68
2022-10-28T04:16:21.481Z,1.68
2022-10-28T04:17:21.418Z,1.68
2022-10-28T04:18:21.408Z,1.68
2022-10-28T04:19:21.393Z,1.65
2022-10-28T04:20:21.395Z,1.65
2022-10-28T04:21:21.367Z,1.61
2022-10-28T04:22:21.367Z,1.63
2022-10-28T04:23:21.326Z,1.70
2022-10-28T04:24:21.340Z,1.61
2022-10-28T04:25:21.312Z,1.63
2022-10-28T04:26:21.306Z,1.58
2022-10-28T04:27:21.353Z,1.68
2022-10-28T04:28:21.287Z,1.65
2022-10-28T04:29:21.295Z,1.68
2022-10-28T04:30:21.231Z,1.65
2022-10-28T04:31:21.231Z,1.63
2022-10-28T04:32:21.236Z,1.58
2022-10-28T04:33:21.223Z,1.65
2022-10-28T04:34:21.207Z,1.65
2022-10-28T04:35:21.183Z,1.65
2022-10-28T04:36:21.174Z,1.63
2022-10-28T04:37:21.142Z,1.68
2022-10-28T04:38:21.209Z,1.58
2022-10-28T04:39:21.122Z,1.65
2022-10-28T04:40:21.139Z,1.68
2022-10-28T04:41:21.099Z,1.63
2022-10-28T04:42:21.112Z,1.65
2022-10-28T04:43:21.091Z,1.65
2022-10-28T04:44:21.079Z,1.56
2022-10-28T04:45:21.070Z,1.58
2022-10-28T04:46:21.067Z,1.63
2022-10-28T04:47:21.050Z,1.68
2022-10-28T04:48:21.010Z,1.65
2022-10-28T04:49:21.021Z,1.63
2022-10-28T04:50:21.016Z,1.56
2022-10-28T04:51:21.002Z,1.63
2022-10-28T04:52:20.962Z,1.68
2022-10-28T04:53:20.949Z,1.70
2022-10-28T04:54:20.935Z,1.65
2022-10-28T04:55:20.907Z,1.65
2022-10-28T04:56:20.933Z,1.63
2022-10-28T04:57:20.888Z,1.68
2022-10-28T04:58:20.896Z,1.61
2022-10-28T04:59:20.858Z,1.70
2022-10-28T05:00:20.846Z,1.68
2022-10-28T05:01:20.917Z,1.56
2022-10-28T05:02:20.930Z,1.68
2022-10-28T05:03:20.826Z,1.70
2022-10-28T05:04:20.816Z,1.68
2022-10-28T05:05:20.809Z,1.68
2022-10-28T05:06:20.767Z,1.61
2022-10-28T05:07:22.878Z,1.61
2022-10-28T05:08:20.750Z,1.68
2022-10-28T05:09:20.805Z,1.68
2022-10-28T05:10:20.711Z,1.78
2022-10-28T05:11:20.732Z,1.80
2022-10-28T05:12:20.763Z,1.75
2022-10-28T05:13:20.698Z,1.80
2022-10-28T05:14:20.692Z,1.80
2022-10-28T05:15:20.662Z,1.95
2022-10-28T05:16:20.662Z,2.00
2022-10-28T05:17:20.646Z,2.05
2022-10-28T05:18:20.651Z,2.07
2022-10-28T05:19:20.611Z,2.15
2022-10-28T05:20:20.593Z,2.22
2022-10-28T05:21:20.580Z,2.35
2022-10-28T05:22:20.570Z,2.57
2022-10-28T05:23:20.591Z,2.74
2022-10-28T05:24:20.558Z,2.94
2022-10-28T05:25:20.522Z,3.16
2022-10-28T05:26:20.527Z,3.53
2022-10-28T05:27:20.509Z,4.05
2022-10-28T05:28:20.480Z,4.52
2022-10-28T05:29:20.478Z,5.19
2022-10-28T05:30:20.458Z,5.98
2022-10-28T05:31:20.468Z,6.74
2022-10-28T05:32:20.558Z,7.83
2022-10-28T05:33:20.478Z,8.89
2022-10-28T05:34:20.421Z,10.28
2022-10-28T05:35:20.444Z,11.88
2022-10-28T05:36:20.377Z,13.41
2022-10-28T05:37:20.377Z,15.26
2022-10-28T05:38:20.386Z,17.22
2022-10-28T05:39:20.347Z,19.44
2022-10-28T05:40:20.356Z,21.71
2022-10-28T05:41:22.011Z,24.11
2022-10-28T05:42:20.314Z,25.27
2022-10-28T05:43:20.351Z,25.27
2022-10-28T05:44:20.286Z,25.27
2022-10-28T05:45:20.408Z,25.27
2022-10-28T05:46:20.266Z,25.27
2022-10-28T05:47:20.266Z,25.27
2022-10-28T05:48:20.274Z,25.27
2022-10-28T05:49:20.268Z,25.27
2022-10-28T05:50:20.212Z,25.27
2022-10-28T05:51:20.224Z,25.27
2022-10-28T05:52:20.182Z,25.27
2022-10-28T05:53:20.245Z,25.27
2022-10-28T05:54:20.186Z,25.27
2022-10-28T05:55:20.161Z,25.27
2022-10-28T05:56:20.135Z,25.27
2022-10-28T05:57:20.142Z,25.27
2022-10-28T05:58:20.161Z,25.27
2022-10-28T05:59:20.144Z,25.27
2022-10-28T06:00:20.080Z,25.27
2022-10-28T06:01:20.138Z,25.27
2022-10-28T06:02:20.075Z,25.27
2022-10-28T06:03:20.170Z,25.27
2022-10-28T06:04:20.019Z,25.27
2022-10-28T06:05:20.170Z,25.27
2022-10-28T06:06:20.019Z,25.27
2022-10-28T06:07:20.009Z,25.27
2022-10-28T06:08:20.002Z,25.27
2022-10-28T06:09:20.020Z,25.27
2022-10-28T06:10:19.938Z,25.27
2022-10-28T06:11:18.456Z,25.27
2022-10-28T06:12:18.435Z,25.27
2022-10-28T06:13:18.420Z,25.27
2022-10-28T06:14:18.363Z,25.27
2022-10-28T06:15:18.384Z,25.27
2022-10-28T06:16:18.362Z,25.27
2022-10-28T06:17:18.364Z,25.27
2022-10-28T06:18:19.052Z,25.27
2022-10-28T06:19:18.336Z,25.27
2022-10-28T06:20:18.297Z,25.27
2022-10-28T06:21:18.318Z,25.27
2022-10-28T06:22:18.285Z,25.27
2022-10-28T06:23:18.268Z,25.27
2022-10-28T06:24:18.229Z,25.27
2022-10-28T06:25:18.295Z,25.27
2022-10-28T06:26:18.223Z,25.27
2022-10-28T06:27:18.235Z,25.27
2022-10-28T06:28:18.201Z,25.27
2022-10-28T06:29:18.245Z,25.27
2022-10-28T06:30:18.173Z,25.27
2022-10-28T06:31:18.230Z,25.27
2022-10-28T06:32:18.155Z,25.27
2022-10-28T06:33:18.267Z,25.27
2022-10-28T06:34:18.144Z,25.27
2022-10-28T06:35:18.150Z,25.27
2022-10-28T06:36:18.116Z,25.27
2022-10-28T06:37:18.092Z,25.27
2022-10-28T06:38:18.081Z,25.27
2022-10-28T06:39:18.110Z,25.27
2022-10-28T06:40:18.069Z,25.27
2022-10-28T06:41:18.079Z,25.27
2022-10-28T06:42:18.019Z,25.27
2022-10-28T06:43:18.038Z,25.27
2022-10-28T06:44:18.001Z,25.27
2022-10-28T06:45:18.051Z,25.27
2022-10-28T06:46:18.020Z,25.27
2022-10-28T06:47:19.553Z,25.27
2022-10-28T06:48:19.506Z,25.27
2022-10-28T06:49:19.496Z,25.27
2022-10-28T06:50:19.452Z,25.27
2022-10-28T06:51:19.460Z,25.27
2022-10-28T06:52:19.409Z,25.27
2022-10-28T06:53:19.439Z,25.27
2022-10-28T06:54:19.430Z,25.27
2022-10-28T06:55:19.392Z,25.27
2022-10-28T06:56:19.450Z,25.27
2022-10-28T06:57:19.442Z,25.27
2022-10-28T06:58:19.367Z,25.27
2022-10-28T06:59:19.348Z,25.27
2022-10-28T07:00:19.359Z,25.27
2022-10-28T07:01:19.436Z,25.27
2022-10-28T07:02:19.402Z,25.27
2022-10-28T07:03:19.296Z,25.27
2022-10-28T07:04:19.306Z,25.27
2022-10-28T07:05:19.305Z,25.27
2022-10-28T07:06:19.368Z,25.27
2022-10-28T07:07:19.262Z,25.27
2022-10-28T07:08:19.248Z,25.27
2022-10-28T07:09:19.212Z,25.27
2022-10-28T07:10:19.200Z,25.27
2022-10-28T07:11:19.272Z,25.27
2022-10-28T07:12:19.239Z,25.27
2022-10-28T07:13:19.266Z,25.27
2022-10-28T07:14:19.167Z,25.27
2022-10-28T07:15:19.163Z,25.27
2022-10-28T07:16:19.218Z,25.27
2022-10-28T07:17:19.136Z,25.27
2022-10-28T07:18:19.183Z,25.27
2022-10-28T07:19:22.463Z,25.27
2022-10-28T07:20:19.106Z,25.27
2022-10-28T07:21:19.064Z,15.56
2022-10-28T07:22:21.449Z,17.29
2022-10-28T07:23:20.074Z,25.27
2022-10-28T07:24:19.145Z,25.27
2022-10-28T07:25:19.015Z,25.27
2022-10-28T07:26:19.055Z,25.27
2022-10-28T07:27:18.996Z,25.27
2022-10-28T07:28:19.666Z,25.27
2022-10-28T07:29:18.977Z,25.27
2022-10-28T07:30:18.996Z,25.27
2022-10-28T07:31:18.979Z,25.27
2022-10-28T07:32:18.949Z,25.27
2022-10-28T07:33:18.957Z,25.27
2022-10-28T07:34:21.117Z,14.62
2022-10-28T07:35:18.967Z,14.47
2022-10-28T07:36:18.935Z,18.43
2022-10-28T07:37:18.899Z,15.44
2022-10-28T07:38:18.899Z,15.81
2022-10-28T07:39:18.872Z,15.76
2022-10-28T07:40:18.826Z,15.86
2022-10-28T07:41:18.831Z,15.64
2022-10-28T07:42:18.813Z,16.13
2022-10-28T07:43:18.797Z,16.52
2022-10-28T07:44:18.768Z,16.99
2022-10-28T07:45:18.837Z,16.94
2022-10-28T07:46:18.755Z,15.34
2022-10-28T07:47:18.757Z,15.66
2022-10-28T07:48:18.765Z,15.36
2022-10-28T07:49:18.747Z,16.30
2022-10-28T07:50:18.715Z,15.26
2022-10-28T07:51:18.714Z,15.04
2022-10-28T07:52:18.691Z,15.73
2022-10-28T07:53:18.693Z,16.03
2022-10-28T07:54:18.724Z,16.67
2022-10-28T07:55:18.672Z,16.82
2022-10-28T07:56:18.632Z,16.35
2022-10-28T07:57:18.639Z,16.01
2022-10-28T07:58:18.647Z,14.92
2022-10-28T07:59:20.999Z,14.40
2022-10-28T08:00:18.584Z,14.35
2022-10-28T08:01:18.718Z,14.50
2022-10-28T08:02:18.558Z,14.05
2022-10-28T08:03:18.549Z,14.62
2022-10-28T08:04:18.576Z,16.55
2022-10-28T08:05:18.558Z,16.15
2022-10-28T08:06:18.478Z,15.83
2022-10-28T08:07:18.493Z,17.46
2022-10-28T08:08:18.524Z,16.20
2022-10-28T08:09:18.467Z,15.73
2022-10-28T08:10:18.444Z,16.50
2022-10-28T08:11:18.441Z,16.25
2022-10-28T08:12:18.435Z,16.62
2022-10-28T08:13:18.398Z,15.68
2022-10-28T08:14:18.370Z,16.52
2022-10-28T08:15:18.383Z,15.64
2022-10-28T08:16:18.356Z,25.27
2022-10-28T08:17:18.310Z,15.24
2022-10-28T08:18:18.308Z,15.96
2022-10-28T08:19:18.380Z,14.99
2022-10-28T08:20:18.287Z,16.20
2022-10-28T08:21:18.306Z,25.27
2022-10-28T08:22:18.321Z,15.71
2022-10-28T08:23:18.273Z,16.03
2022-10-28T08:24:18.224Z,15.04
2022-10-28T08:25:18.264Z,25.27
2022-10-28T08:26:18.240Z,14.77
2022-10-28T08:27:18.199Z,14.87
2022-10-28T08:28:18.243Z,25.27
2022-10-28T08:29:18.209Z,15.66
2022-10-28T08:30:18.169Z,15.71
2022-10-28T08:31:18.179Z,15.26
2022-10-28T08:32:18.119Z,25.27
2022-10-28T08:33:18.146Z,25.27
2022-10-28T08:34:18.230Z,25.27
2022-10-28T08:35:18.125Z,14.92
2022-10-28T08:36:18.094Z,15.14
2022-10-28T08:37:18.142Z,15.14
2022-10-28T08:38:18.098Z,15.17
2022-10-28T08:39:18.075Z,14.82
2022-10-28T08:40:18.027Z,14.87
2022-10-28T08:41:18.084Z,15.04
2022-10-28T08:42:18.047Z,14.67
2022-10-28T08:43:20.753Z,14.99
2022-10-28T08:44:18.972Z,14.75
2022-10-28T08:45:18.004Z,14.89
2022-10-28T08:46:18.043Z,14.94
2022-10-28T08:47:17.951Z,14.94
2022-10-28T08:48:17.940Z,14.55
2022-10-28T08:49:17.950Z,14.62
2022-10-28T08:50:17.907Z,15.07
2022-10-28T08:51:17.918Z,14.85
2022-10-28T08:52:17.908Z,15.02
2022-10-28T08:53:17.887Z,14.55
2022-10-28T08:54:17.908Z,14.99
2022-10-28T08:55:17.860Z,14.99
2022-10-28T08:56:17.829Z,25.27
2022-10-28T08:57:18.236Z,25.27
2022-10-28T08:58:17.888Z,25.27
2022-10-28T08:59:17.858Z,25.27
2022-10-28T09:00:17.806Z,25.27
2022-10-28T09:01:18.028Z,25.27
2022-10-28T09:02:17.803Z,25.27
2022-10-28T09:03:17.767Z,25.27
2022-10-28T09:04:17.745Z,25.27
2022-10-28T09:05:17.714Z,25.27
2022-10-28T09:06:17.759Z,25.27
2022-10-28T09:07:17.729Z,25.27
2022-10-28T09:08:17.708Z,25.27
2022-10-28T09:09:17.746Z,25.27
2022-10-28T09:10:17.647Z,25.27
2022-10-28T09:11:17.642Z,25.27
2022-10-28T09:12:17.629Z,25.27
2022-10-28T09:13:17.634Z,25.27
2022-10-28T09:14:17.663Z,25.27
2022-10-28T09:15:17.582Z,14.89
2022-10-28T09:16:17.701Z,15.51
2022-10-28T09:17:17.545Z,15.83
2022-10-28T09:18:17.621Z,15.44
2022-10-28T09:19:17.545Z,25.27
2022-10-28T09:20:17.611Z,15.17
2022-10-28T09:21:17.570Z,16.45
2022-10-28T09:22:20.771Z,15.07
2022-10-28T09:23:17.504Z,14.65
2022-10-28T09:24:17.463Z,14.97
2022-10-28T09:25:17.503Z,15.12
2022-10-28T09:26:17.485Z,15.02
2022-10-28T09:27:17.441Z,15.12
2022-10-28T09:28:17.418Z,14.65
2022-10-28T09:29:17.475Z,14.97
2022-10-28T09:30:17.450Z,15.02
2022-10-28T09:31:17.369Z,14.92
2022-10-28T09:32:17.370Z,14.89
2022-10-28T09:33:17.339Z,15.04
2022-10-28T09:34:17.385Z,14.92
2022-10-28T09:35:17.374Z,14.92
2022-10-28T09:36:17.380Z,15.22
2022-10-28T09:37:17.359Z,14.99
2022-10-28T09:38:17.373Z,15.26
2022-10-28T09:39:17.303Z,15.22
2022-10-28T09:40:17.259Z,15.04
2022-10-28T09:41:17.245Z,15.56
2022-10-28T09:42:17.298Z,15.73
2022-10-28T09:43:17.229Z,14.35
2022-10-28T09:44:17.267Z,14.45
2022-10-28T09:45:17.200Z,14.52
2022-10-28T09:46:17.195Z,14.65
2022-10-28T09:47:17.196Z,14.94
2022-10-28T09:48:17.160Z,14.75
2022-10-28T09:49:17.177Z,14.99
2022-10-28T09:50:17.128Z,14.65
2022-10-28T09:51:17.127Z,15.09
2022-10-28T09:52:17.131Z,14.94
2022-10-28T09:53:17.093Z,14.94
2022-10-28T09:54:17.125Z,14.94
2022-10-28T09:55:17.066Z,15.22
2022-10-28T09:56:17.092Z,15.17
2022-10-28T09:57:17.515Z,15.19
2022-10-28T09:58:17.045Z,14.67
2022-10-28T09:59:17.024Z,15.24
2022-10-28T10:00:17.006Z,15.26
2022-10-28T10:01:17.085Z,14.43
2022-10-28T10:02:17.073Z,25.27
2022-10-28T10:03:16.963Z,14.72
2022-10-28T10:04:16.974Z,14.60
2022-10-28T10:05:17.309Z,14.38
2022-10-28T10:06:16.942Z,14.47
2022-10-28T10:07:16.934Z,25.27
2022-10-28T10:08:16.942Z,15.91
2022-10-28T10:09:16.891Z,15.86
2022-10-28T10:10:16.903Z,15.76
2022-10-28T10:11:16.910Z,15.73
2022-10-28T10:12:16.885Z,16.90
2022-10-28T10:13:16.932Z,14.28
2022-10-28T10:14:16.840Z,16.18
2022-10-28T10:15:16.826Z,14.99
2022-10-28T10:16:16.812Z,15.14
2022-10-28T10:17:16.824Z,16.06
2022-10-28T10:18:16.786Z,15.12
2022-10-28T10:19:16.803Z,15.78
2022-10-28T10:20:16.752Z,16.20
2022-10-28T10:21:16.819Z,16.18
2022-10-28T10:22:16.739Z,15.96
2022-10-28T10:23:16.761Z,15.56
2022-10-28T10:24:16.767Z,15.96
2022-10-28T10:25:16.744Z,16.20
2022-10-28T10:26:16.691Z,14.75
2022-10-28T10:27:16.667Z,14.72
2022-10-28T10:28:16.727Z,14.60
2022-10-28T10:29:16.636Z,16.38
2022-10-28T10:30:16.736Z,15.39
2022-10-28T10:31:16.646Z,15.44
2022-10-28T10:32:16.594Z,15.88
2022-10-28T10:33:16.586Z,16.65
2022-10-28T10:34:16.576Z,14.77
2022-10-28T10:35:16.545Z,14.62
2022-10-28T10:36:16.547Z,14.82
2022-10-28T10:37:16.525Z,14.55
2022-10-28T10:38:16.541Z,15.19
2022-10-28T10:39:16.504Z,25.27
2022-10-28T10:40:16.587Z,25.27
2022-10-28T10:41:16.495Z,25.27
2022-10-28T10:42:16.498Z,25.27
2022-10-28T10:43:16.465Z,25.27
2022-10-28T10:44:16.445Z,25.27
2022-10-28T10:45:16.447Z,25.27
2022-10-28T10:46:16.497Z,25.27
2022-10-28T10:47:16.432Z,25.27
2022-10-28T10:48:16.405Z,25.27
2022-10-28T10:49:16.382Z,25.27
2022-10-28T10:50:16.452Z,25.27
2022-10-28T10:51:16.391Z,25.27
2022-10-28T10:52:16.392Z,25.27
2022-10-28T10:53:16.332Z,25.27
2022-10-28T10:54:16.323Z,25.27
2022-10-28T10:55:16.310Z,25.27
2022-10-28T10:56:16.365Z,25.27
2022-10-28T10:57:16.299Z,25.27
2022-10-28T10:58:16.289Z,25.27
2022-10-28T10:59:16.266Z,25.27
2022-10-28T11:00:16.261Z,25.27
2022-10-28T11:01:16.377Z,25.27
2022-10-28T11:02:16.417Z,25.27
2022-10-28T11:03:16.226Z,25.27
2022-10-28T11:04:16.200Z,25.27
2022-10-28T11:05:16.229Z,25.27
2022-10-28T11:06:23.576Z,25.27
2022-10-28T11:07:17.212Z,25.27
2022-10-28T11:08:16.149Z,25.27
2022-10-28T11:09:16.142Z,25.27
2022-10-28T11:10:16.129Z,25.27
2022-10-28T11:11:16.119Z,25.27
2022-10-28T11:12:16.119Z,25.27
2022-10-28T11:13:16.077Z,25.27
2022-10-28T11:14:16.091Z,25.27
2022-10-28T11:15:16.080Z,25.27
2022-10-28T11:16:16.053Z,25.27
2022-10-28T11:17:16.046Z,25.27
2022-10-28T11:18:16.036Z,25.27
2022-10-28T11:19:16.077Z,25.27
2022-10-28T11:20:16.019Z,25.27
2022-10-28T11:21:16.001Z,25.27
2022-10-28T11:22:16.011Z,25.27
2022-10-28T11:23:15.954Z,25.27
2022-10-28T11:24:15.976Z,25.27
2022-10-28T11:25:15.934Z,25.27
2022-10-28T11:26:15.929Z,25.27
2022-10-28T11:27:15.933Z,25.27
2022-10-28T11:28:15.918Z,25.27
2022-10-28T11:29:15.885Z,25.27
2022-10-28T11:30:15.871Z,25.27
2022-10-28T11:31:15.876Z,25.27
2022-10-28T11:32:15.980Z,25.27
2022-10-28T11:33:29.278Z,25.27
2022-10-28T11:34:16.826Z,25.27
2022-10-28T11:35:15.850Z,25.27
2022-10-28T11:36:15.784Z,25.27
2022-10-28T11:37:15.813Z,25.27
2022-10-28T11:38:15.794Z,25.27
2022-10-28T11:39:15.751Z,25.27
2022-10-28T11:40:15.763Z,25.27
2022-10-28T11:41:15.735Z,25.27
2022-10-28T11:42:15.762Z,25.27
2022-10-28T11:43:15.711Z,25.27
2022-10-28T11:44:15.692Z,25.27
2022-10-28T11:45:15.749Z,25.27
2022-10-28T11:46:15.680Z,25.27
2022-10-28T11:47:15.683Z,25.27
2022-10-28T11:48:15.681Z,25.27
2022-10-28T11:49:15.667Z,25.27
2022-10-28T11:50:15.633Z,25.27
2022-10-28T11:51:15.644Z,25.27
2022-10-28T11:52:15.574Z,25.27
2022-10-28T11:53:15.607Z,25.27
2022-10-28T11:54:15.570Z,25.27
2022-10-28T11:55:15.864Z,25.27
2022-10-28T11:56:15.559Z,25.27
2022-10-28T11:57:15.518Z,25.27
2022-10-28T11:58:15.597Z,25.27
2022-10-28T11:59:15.508Z,25.27
2022-10-28T12:00:15.507Z,25.27
2022-10-28T12:01:15.479Z,25.27
2022-10-28T12:02:15.560Z,25.27
2022-10-28T12:03:15.499Z,25.27
2022-10-28T12:04:15.477Z,25.27
2022-10-28T12:05:15.417Z,25.27
2022-10-28T12:06:15.404Z,25.27
2022-10-28T12:07:15.388Z,25.27
2022-10-28T12:08:15.397Z,25.27
2022-10-28T12:09:15.381Z,25.27
2022-10-28T12:10:15.391Z,25.27
2022-10-28T12:11:15.357Z,25.27
2022-10-28T12:12:15.345Z,25.27
2022-10-28T12:13:15.330Z,25.27
2022-10-28T12:14:15.343Z,25.27
2022-10-28T12:15:15.281Z,25.27
2022-10-28T12:16:15.264Z,25.27
2022-10-28T12:17:15.268Z,25.27
2022-10-28T12:18:15.273Z,25.27
2022-10-28T12:19:15.242Z,25.27
2022-10-28T12:20:15.254Z,25.27
2022-10-28T12:21:15.281Z,25.27
2022-10-28T12:22:15.189Z,25.27
2022-10-28T12:23:15.177Z,25.27
2022-10-28T12:24:15.181Z,25.27
2022-10-28T12:25:15.201Z,25.27
2022-10-28T12:26:15.135Z,25.27
2022-10-28T12:27:18.046Z,25.27
2022-10-28T12:28:15.181Z,25.27
2022-10-28T12:29:15.111Z,25.27
2022-10-28T12:30:15.122Z,25.27
2022-10-28T12:31:15.086Z,25.27
2022-10-28T12:32:15.080Z,25.27
2022-10-28T12:33:15.048Z,25.27
2022-10-28T12:34:15.035Z,25.27
2022-10-28T12:35:15.046Z,25.27
2022-10-28T12:36:15.019Z,25.27
2022-10-28T12:37:15.018Z,25.27
2022-10-28T12:38:15.028Z,25.27
2022-10-28T12:39:14.971Z,25.27
2022-10-28T12:40:14.971Z,25.27
2022-10-28T12:41:14.960Z,25.27
2022-10-28T12:42:14.985Z,25.27
2022-10-28T12:43:14.910Z,25.27
2022-10-28T12:44:14.927Z,25.27
2022-10-28T12:45:14.906Z,25.27
2022-10-28T12:46:14.887Z,25.27
2022-10-28T12:47:14.857Z,25.27
2022-10-28T12:48:14.884Z,25.27
2022-10-28T12:49:15.080Z,25.27
2022-10-28T12:50:14.838Z,25.27
2022-10-28T12:51:14.826Z,25.27
2022-10-28T12:52:14.845Z,25.27
2022-10-28T12:53:14.805Z,25.27
2022-10-28T12:54:14.766Z,25.27
2022-10-28T12:56:14.787Z,25.27
2022-10-28T12:57:14.747Z,25.27
2022-10-28T12:58:15.576Z,25.27
2022-10-28T12:59:14.707Z,25.27
2022-10-28T13:00:14.689Z,25.27
2022-10-28T13:01:14.779Z,25.27
2022-10-28T13:02:14.870Z,25.27
2022-10-28T13:03:14.657Z,25.27
2022-10-28T13:04:14.636Z,25.27
2022-10-28T13:05:14.647Z,25.27
2022-10-28T13:06:14.613Z,25.27